createdAt,value
2022-12-28T00:00:32.616Z,962.09
2022-12-28T00:02:58.938Z,962.08
2022-12-28T00:05:25.228Z,962.12
2022-12-28T00:07:51.595Z,962.14
2022-12-28T00:10:17.904Z,962.15
2022-12-28T00:12:44.291Z,962.12
2022-12-28T00:15:10.658Z,962.15
2022-12-28T00:17:37.014Z,962.17
2022-12-28T00:20:03.354Z,962.15
2022-12-28T00:22:29.767Z,962.20
2022-12-28T00:24:56.085Z,962.24
2022-12-28T00:27:22.425Z,962.26
2022-12-28T00:29:48.784Z,962.22
2022-12-28T00:32:15.127Z,962.31
2022-12-28T00:34:41.487Z,962.39
2022-12-28T00:37:12.919Z,962.42
2022-12-28T00:39:34.158Z,962.37
2022-12-28T00:42:00.555Z,962.41
2022-12-28T00:44:26.906Z,962.44
2022-12-28T00:46:53.246Z,962.55
2022-12-28T00:49:19.577Z,962.53
2022-12-28T00:51:45.962Z,962.58
2022-12-28T00:54:12.295Z,962.54
2022-12-28T00:56:38.667Z,962.55
2022-12-28T00:59:05.057Z,962.53
2022-12-28T01:01:31.506Z,962.57
2022-12-28T01:03:57.768Z,962.53
2022-12-28T01:06:24.164Z,962.53
2022-12-28T01:08:50.518Z,962.59
2022-12-28T01:11:16.846Z,962.54
2022-12-28T01:13:43.204Z,962.43
2022-12-28T01:16:09.573Z,962.46
2022-12-28T01:18:35.932Z,962.42
2022-12-28T01:21:02.326Z,962.43
2022-12-28T01:23:28.669Z,962.48
2022-12-28T01:25:55.017Z,962.45
2022-12-28T01:28:21.347Z,962.39
2022-12-28T01:30:47.699Z,962.41
2022-12-28T01:33:14.094Z,962.41
2022-12-28T01:35:40.490Z,962.41
2022-12-28T01:38:06.823Z,962.42
2022-12-28T01:40:33.260Z,962.36
2022-12-28T01:42:59.579Z,962.34
2022-12-28T01:45:25.977Z,962.35
2022-12-28T01:47:52.297Z,962.33
2022-12-28T01:50:18.651Z,962.31
2022-12-28T01:52:45.012Z,962.23
2022-12-28T01:55:11.355Z,962.32
2022-12-28T01:57:37.725Z,962.28
2022-12-28T02:00:04.119Z,962.25
2022-12-28T02:02:30.604Z,962.23
2022-12-28T02:04:56.899Z,962.11
2022-12-28T02:07:25.396Z,962.11
2022-12-28T02:10:41.115Z,962.15
2022-12-28T02:12:18.073Z,962.11
2022-12-28T02:14:44.482Z,962.11
2022-12-28T02:17:10.875Z,962.18
2022-12-28T02:19:37.248Z,962.13
2022-12-28T02:22:03.602Z,962.04
2022-12-28T02:24:30.003Z,962.04
2022-12-28T02:26:56.386Z,961.99
2022-12-28T02:29:22.736Z,961.97
2022-12-28T02:31:49.066Z,961.98
2022-12-28T02:34:15.445Z,961.90
2022-12-28T02:36:41.740Z,961.94
2022-12-28T02:39:08.133Z,961.91
2022-12-28T02:41:34.438Z,961.94
2022-12-28T02:44:00.823Z,961.95
2022-12-28T02:46:27.136Z,961.95
2022-12-28T02:48:53.455Z,962.00
2022-12-28T02:51:19.789Z,962.03
2022-12-28T02:53:46.168Z,962.02
2022-12-28T02:56:12.488Z,961.98
2022-12-28T02:58:38.881Z,961.99
2022-12-28T03:01:05.286Z,961.99
2022-12-28T03:03:31.541Z,961.94
2022-12-28T03:05:57.897Z,962.00
2022-12-28T03:08:24.241Z,961.94
2022-12-28T03:10:50.605Z,962.00
2022-12-28T03:13:16.993Z,962.04
2022-12-28T03:15:43.394Z,961.95
2022-12-28T03:18:09.710Z,961.97
2022-12-28T03:20:36.074Z,962.02
2022-12-28T03:23:02.406Z,961.98
2022-12-28T03:25:28.785Z,961.95
2022-12-28T03:27:55.139Z,961.94
2022-12-28T03:30:21.462Z,961.95
2022-12-28T03:32:47.891Z,961.92
2022-12-28T03:35:14.217Z,961.98
2022-12-28T03:37:40.576Z,962.01
2022-12-28T03:40:06.929Z,961.97
2022-12-28T03:42:33.322Z,962.08
2022-12-28T03:44:59.671Z,961.97
2022-12-28T03:47:26.057Z,962.01
2022-12-28T03:49:52.375Z,962.04
2022-12-28T03:52:18.763Z,961.98
2022-12-28T03:54:45.128Z,961.91
2022-12-28T03:57:11.476Z,961.89
2022-12-28T03:59:37.836Z,961.91
2022-12-28T04:02:04.260Z,961.91
2022-12-28T04:04:30.615Z,961.82
2022-12-28T04:06:56.886Z,961.89
2022-12-28T04:09:23.226Z,961.84
2022-12-28T04:11:49.625Z,961.93
2022-12-28T04:14:15.964Z,961.88
2022-12-28T04:16:42.366Z,961.94
2022-12-28T04:19:08.719Z,961.89
2022-12-28T04:21:35.140Z,961.87
2022-12-28T04:24:01.469Z,961.89
2022-12-28T04:26:27.815Z,961.96
2022-12-28T04:28:54.144Z,962.14
2022-12-28T04:31:20.529Z,962.22
2022-12-28T04:33:46.877Z,962.28
2022-12-28T04:36:13.263Z,962.26
2022-12-28T04:38:39.620Z,962.23
2022-12-28T04:41:06.011Z,962.32
2022-12-28T04:43:32.323Z,962.21
2022-12-28T04:45:58.719Z,962.22
2022-12-28T04:48:25.045Z,962.27
2022-12-28T04:50:51.419Z,962.30
2022-12-28T04:53:17.778Z,962.36
2022-12-28T04:55:44.155Z,962.39
2022-12-28T04:58:10.494Z,962.41
2022-12-28T05:00:36.918Z,962.39
2022-12-28T05:03:03.311Z,962.42
2022-12-28T05:05:29.628Z,962.43
2022-12-28T05:07:55.981Z,962.42
2022-12-28T05:10:22.323Z,962.37
2022-12-28T05:12:48.641Z,962.26
2022-12-28T05:15:15.030Z,962.30
2022-12-28T05:17:41.400Z,962.26
2022-12-28T05:20:07.795Z,962.32
2022-12-28T05:22:39.161Z,962.31
2022-12-28T05:25:00.490Z,962.37
2022-12-28T05:27:26.816Z,962.29
2022-12-28T05:29:53.205Z,962.31
2022-12-28T05:32:19.587Z,962.29
2022-12-28T05:34:45.958Z,962.36
2022-12-28T05:37:15.717Z,962.38
2022-12-28T05:39:38.746Z,962.47
2022-12-28T05:42:05.030Z,962.44
2022-12-28T05:44:31.376Z,962.46
2022-12-28T05:46:57.739Z,962.45
2022-12-28T05:49:24.093Z,962.53
2022-12-28T05:51:50.462Z,962.53
2022-12-28T05:54:16.801Z,962.61
2022-12-28T05:56:43.191Z,962.56
2022-12-28T05:59:09.536Z,962.58
2022-12-28T06:01:36.076Z,962.59
2022-12-28T06:04:02.293Z,962.61
2022-12-28T06:06:28.596Z,962.55
2022-12-28T06:08:54.946Z,962.53
2022-12-28T06:11:21.314Z,962.58
2022-12-28T06:13:47.693Z,962.60
2022-12-28T06:16:14.070Z,962.67
2022-12-28T06:18:40.437Z,962.71
2022-12-28T06:21:06.764Z,962.69
2022-12-28T06:23:33.086Z,962.71
2022-12-28T06:25:59.478Z,962.73
2022-12-28T06:28:25.839Z,962.70
2022-12-28T06:30:52.954Z,962.64
2022-12-28T06:33:18.550Z,962.63
2022-12-28T06:35:44.957Z,962.60
2022-12-28T06:38:11.312Z,962.62
2022-12-28T06:41:11.158Z,962.70
2022-12-28T06:43:04.055Z,962.80
2022-12-28T06:45:30.435Z,962.88
2022-12-28T06:47:56.787Z,962.91
2022-12-28T06:50:23.174Z,963.00
2022-12-28T06:52:49.491Z,962.91
2022-12-28T06:55:15.833Z,962.82
2022-12-28T06:57:42.227Z,962.87
2022-12-28T07:00:08.575Z,962.92
2022-12-28T07:02:35.021Z,962.95
2022-12-28T07:05:01.336Z,962.91
2022-12-28T07:07:27.700Z,962.90
2022-12-28T07:09:54.083Z,962.89
2022-12-28T07:12:20.437Z,962.88
2022-12-28T07:14:46.847Z,962.89
2022-12-28T07:17:13.164Z,962.93
2022-12-28T07:19:39.552Z,962.89
2022-12-28T07:22:06.020Z,962.97
2022-12-28T07:24:32.324Z,962.97
2022-12-28T07:26:58.653Z,963.00
2022-12-28T07:29:25.048Z,963.01
2022-12-28T07:31:51.409Z,962.95
2022-12-28T07:34:17.779Z,963.02
2022-12-28T07:36:44.187Z,962.96
2022-12-28T07:39:10.614Z,962.97
2022-12-28T07:41:36.867Z,962.99
2022-12-28T07:44:03.212Z,963.05
2022-12-28T07:46:29.600Z,963.07
2022-12-28T07:48:55.931Z,963.06
2022-12-28T07:51:22.254Z,963.09
2022-12-28T07:53:48.640Z,963.11
2022-12-28T07:56:15.000Z,963.07
2022-12-28T08:01:09.857Z,963.07
2022-12-28T08:03:36.199Z,963.12
2022-12-28T08:06:02.533Z,963.02
2022-12-28T08:08:29.004Z,963.12
2022-12-28T08:10:55.376Z,963.06
2022-12-28T08:13:21.790Z,962.97
2022-12-28T08:15:48.175Z,962.94
2022-12-28T08:18:14.482Z,963.10
2022-12-28T08:20:40.832Z,963.06
2022-12-28T08:23:07.294Z,963.07
2022-12-28T08:25:33.657Z,963.10
2022-12-28T08:27:59.984Z,963.19
2022-12-28T08:30:26.348Z,963.14
2022-12-28T08:32:52.735Z,963.21
2022-12-28T08:35:19.097Z,963.15
2022-12-28T08:37:45.442Z,963.19
2022-12-28T08:40:11.819Z,963.15
2022-12-28T08:42:38.149Z,963.17
2022-12-28T08:45:04.639Z,963.12
2022-12-28T08:47:30.979Z,963.09
2022-12-28T08:49:57.361Z,963.18
2022-12-28T08:52:23.818Z,963.19
2022-12-28T08:54:50.171Z,963.11
2022-12-28T08:57:16.550Z,963.11
2022-12-28T08:59:42.965Z,963.10
2022-12-28T09:02:09.444Z,963.04
2022-12-28T09:04:35.713Z,963.01
2022-12-28T09:07:02.096Z,962.98
2022-12-28T09:09:28.449Z,962.95
2022-12-28T09:11:54.852Z,962.94
2022-12-28T09:14:24.188Z,962.91
2022-12-28T09:16:47.582Z,962.86
2022-12-28T09:19:13.925Z,962.86
2022-12-28T09:21:40.364Z,962.78
2022-12-28T09:24:06.686Z,962.68
2022-12-28T09:26:33.125Z,962.75
2022-12-28T09:28:59.481Z,962.74
2022-12-28T09:31:25.845Z,962.71
2022-12-28T09:34:33.784Z,962.74
2022-12-28T09:36:18.502Z,962.70
2022-12-28T09:38:44.903Z,962.64
2022-12-28T09:41:11.268Z,962.66
2022-12-28T09:43:37.623Z,962.55
2022-12-28T09:46:04.051Z,962.52
2022-12-28T09:48:30.370Z,962.49
2022-12-28T09:50:56.763Z,962.45
2022-12-28T09:53:25.443Z,962.46
2022-12-28T09:55:49.470Z,962.40
2022-12-28T09:58:15.912Z,962.42
2022-12-28T10:00:42.255Z,962.40
2022-12-28T10:03:08.688Z,962.40
2022-12-28T10:05:34.986Z,962.32
2022-12-28T10:08:01.310Z,962.27
2022-12-28T10:10:27.654Z,962.25
2022-12-28T10:12:53.974Z,962.26
2022-12-28T10:15:20.358Z,962.20
2022-12-28T10:17:46.708Z,962.25
2022-12-28T10:20:13.047Z,962.22
2022-12-28T10:22:42.437Z,962.22
2022-12-28T10:25:05.787Z,962.23
2022-12-28T10:27:32.106Z,962.17
2022-12-28T10:29:58.450Z,962.13
2022-12-28T10:32:24.772Z,962.15
2022-12-28T10:34:51.164Z,962.13
2022-12-28T10:37:17.481Z,962.17
2022-12-28T10:39:43.860Z,962.22
2022-12-28T10:42:10.256Z,962.17
2022-12-28T10:44:40.584Z,962.08
2022-12-28T10:47:02.946Z,962.12
2022-12-28T10:49:29.314Z,962.08
2022-12-28T10:51:55.673Z,962.06
2022-12-28T10:54:27.641Z,962.07
2022-12-28T10:56:48.335Z,962.12
2022-12-28T10:59:14.680Z,962.16
2022-12-28T11:01:41.312Z,962.09
2022-12-28T11:04:07.387Z,962.08
2022-12-28T11:06:33.729Z,962.07
2022-12-28T11:09:00.076Z,962.12
2022-12-28T11:11:26.398Z,962.08
2022-12-28T11:13:52.750Z,962.13
2022-12-28T11:16:19.219Z,962.19
2022-12-28T11:18:45.529Z,962.14
2022-12-28T11:21:11.903Z,962.16
2022-12-28T11:23:38.223Z,962.19
2022-12-28T11:26:04.596Z,962.27
2022-12-28T11:28:30.974Z,962.26
2022-12-28T11:30:57.308Z,962.31
2022-12-28T11:33:23.731Z,962.23
2022-12-28T11:35:50.002Z,962.20
2022-12-28T11:38:16.356Z,962.21
2022-12-28T11:40:42.701Z,962.27
2022-12-28T11:43:09.047Z,962.25
2022-12-28T11:45:35.389Z,962.30
2022-12-28T11:48:01.752Z,962.22
2022-12-28T11:50:28.115Z,962.23
2022-12-28T11:52:54.465Z,962.17
2022-12-28T11:55:20.837Z,962.10
2022-12-28T11:57:47.212Z,962.10
2022-12-28T12:00:17.162Z,962.04
2022-12-28T12:02:39.898Z,962.03
2022-12-28T12:05:06.250Z,962.04
2022-12-28T12:07:32.600Z,961.96
2022-12-28T12:09:58.973Z,961.90
2022-12-28T12:12:25.351Z,961.77
2022-12-28T12:14:51.677Z,961.87
2022-12-28T12:17:18.055Z,961.80
2022-12-28T12:19:44.366Z,961.80
2022-12-28T12:22:10.730Z,961.76
2022-12-28T12:24:37.106Z,961.73
2022-12-28T12:27:08.679Z,961.70
2022-12-28T12:29:29.843Z,961.65
2022-12-28T12:31:56.189Z,961.63
2022-12-28T12:34:22.559Z,961.65
2022-12-28T12:36:48.912Z,961.57
2022-12-28T12:39:15.269Z,961.60
2022-12-28T12:41:41.611Z,961.61
2022-12-28T12:44:07.968Z,961.61
2022-12-28T12:46:34.367Z,961.55
2022-12-28T12:49:00.686Z,961.57
2022-12-28T12:51:27.074Z,961.55
2022-12-28T12:53:53.370Z,961.60
2022-12-28T12:56:19.759Z,961.60
2022-12-28T12:58:46.087Z,961.57
2022-12-28T13:01:12.562Z,961.58
2022-12-28T13:03:38.819Z,961.55
2022-12-28T13:06:05.219Z,961.51
2022-12-28T13:08:31.565Z,961.45
2022-12-28T13:10:57.925Z,961.52
2022-12-28T13:13:24.243Z,961.45
2022-12-28T13:15:50.652Z,961.40
2022-12-28T13:18:46.760Z,961.36
2022-12-28T13:20:43.331Z,961.34
2022-12-28T13:23:09.672Z,961.30
2022-12-28T13:25:36.033Z,961.30
2022-12-28T13:28:02.405Z,961.31
2022-12-28T13:30:28.929Z,961.25
2022-12-28T13:32:55.133Z,961.28
2022-12-28T13:35:21.521Z,961.34
2022-12-28T13:37:47.868Z,961.34
2022-12-28T13:40:14.240Z,961.34
2022-12-28T13:42:40.560Z,961.33
2022-12-28T13:45:06.947Z,961.31
2022-12-28T13:47:33.263Z,961.21
2022-12-28T13:49:59.622Z,961.27
2022-12-28T13:52:25.979Z,961.33
2022-12-28T13:54:52.325Z,961.39
2022-12-28T13:57:46.007Z,961.34
2022-12-28T13:59:45.005Z,961.28
2022-12-28T14:02:11.393Z,961.29
2022-12-28T14:04:53.953Z,961.25
2022-12-28T14:07:04.048Z,961.26
2022-12-28T14:09:30.394Z,961.27
2022-12-28T14:11:56.755Z,961.17
2022-12-28T14:14:23.100Z,961.18
2022-12-28T14:16:49.463Z,961.11
2022-12-28T14:19:15.913Z,961.24
2022-12-28T14:21:42.159Z,961.22
2022-12-28T14:24:08.542Z,961.21
2022-12-28T14:26:34.869Z,961.23
2022-12-28T14:29:01.252Z,961.20
2022-12-28T14:31:27.719Z,961.25
2022-12-28T14:33:53.951Z,961.26
2022-12-28T14:36:20.300Z,961.31
2022-12-28T14:38:46.691Z,961.35
2022-12-28T14:41:13.048Z,961.38
2022-12-28T14:43:39.463Z,961.44
2022-12-28T14:46:08.208Z,961.37
2022-12-28T14:48:32.108Z,961.46
2022-12-28T14:50:58.436Z,961.43
2022-12-28T14:53:24.790Z,961.45
2022-12-28T14:55:51.114Z,961.45
2022-12-28T14:58:17.637Z,961.51
2022-12-28T15:00:43.869Z,961.42
2022-12-28T15:03:10.312Z,961.45
2022-12-28T15:05:36.616Z,961.44
2022-12-28T15:08:02.954Z,961.37
2022-12-28T15:10:29.308Z,961.36
2022-12-28T15:12:55.667Z,961.34
2022-12-28T15:15:21.999Z,961.33
2022-12-28T15:17:48.383Z,961.41
2022-12-28T15:20:14.732Z,961.44
2022-12-28T15:22:41.080Z,961.39
2022-12-28T15:25:07.506Z,961.36
2022-12-28T15:27:33.889Z,961.36
2022-12-28T15:30:11.890Z,961.32
2022-12-28T15:32:26.989Z,961.21
2022-12-28T15:34:53.359Z,961.24
2022-12-28T15:37:19.782Z,961.26
2022-12-28T15:39:46.079Z,961.25
2022-12-28T15:42:12.444Z,961.33
2022-12-28T15:44:38.796Z,961.33
2022-12-28T15:47:05.258Z,961.40
2022-12-28T15:49:31.508Z,961.36
2022-12-28T15:51:57.902Z,961.31
2022-12-28T15:54:24.265Z,961.37
2022-12-28T15:56:50.628Z,961.33
2022-12-28T15:59:17.008Z,961.36
2022-12-28T16:01:43.644Z,961.37
2022-12-28T16:04:09.753Z,961.31
2022-12-28T16:06:43.694Z,961.35
2022-12-28T16:09:02.493Z,961.46
2022-12-28T16:11:28.862Z,961.55
2022-12-28T16:13:55.176Z,961.47
2022-12-28T16:16:21.627Z,961.49
2022-12-28T16:18:47.925Z,961.40
2022-12-28T16:21:14.294Z,961.41
2022-12-28T16:23:40.597Z,961.33
2022-12-28T16:26:06.980Z,961.33
2022-12-28T16:28:33.301Z,961.31
2022-12-28T16:30:59.645Z,961.44
2022-12-28T16:33:25.958Z,961.45
2022-12-28T16:35:59.185Z,961.48
2022-12-28T16:38:18.661Z,961.47
2022-12-28T16:40:45.047Z,961.52
2022-12-28T16:43:11.401Z,961.55
2022-12-28T16:45:37.767Z,961.56
2022-12-28T16:48:04.112Z,961.58
2022-12-28T16:50:30.442Z,961.60
2022-12-28T16:52:56.793Z,961.67
2022-12-28T16:55:23.153Z,961.70
2022-12-28T16:57:49.485Z,961.71
2022-12-28T17:00:15.852Z,961.70
2022-12-28T17:02:42.392Z,961.74
2022-12-28T17:05:08.567Z,961.70
2022-12-28T17:07:34.935Z,961.74
2022-12-28T17:10:01.297Z,961.74
2022-12-28T17:12:27.688Z,961.68
2022-12-28T17:14:53.999Z,961.72
2022-12-28T17:17:20.388Z,961.64
2022-12-28T17:19:46.698Z,961.66
2022-12-28T17:22:13.089Z,961.72
2022-12-28T17:24:39.482Z,961.82
2022-12-28T17:27:09.052Z,961.86
2022-12-28T17:29:32.278Z,961.81
2022-12-28T17:31:58.709Z,961.85
2022-12-28T17:34:24.934Z,961.79
2022-12-28T17:36:51.319Z,961.75
2022-12-28T17:39:17.641Z,961.73
2022-12-28T17:41:44.013Z,961.76
2022-12-28T17:44:10.327Z,961.62
2022-12-28T17:46:36.728Z,961.61
2022-12-28T17:49:02.992Z,961.61
2022-12-28T17:51:29.465Z,961.62
2022-12-28T17:53:55.677Z,961.65
2022-12-28T17:56:22.025Z,961.65
2022-12-28T17:58:48.396Z,961.69
2022-12-28T18:01:14.843Z,961.70
2022-12-28T18:03:41.183Z,961.78
2022-12-28T18:06:07.451Z,961.79
2022-12-28T18:08:33.865Z,961.82
2022-12-28T18:11:00.254Z,961.81
2022-12-28T18:13:26.612Z,961.76
2022-12-28T18:15:52.959Z,961.74
2022-12-28T18:18:19.287Z,961.79
2022-12-28T18:20:45.650Z,961.88
2022-12-28T18:23:11.966Z,961.93
2022-12-28T18:25:38.314Z,961.96
2022-12-28T18:28:04.680Z,961.94
2022-12-28T18:30:31.095Z,961.83
2022-12-28T18:32:57.412Z,961.82
2022-12-28T18:35:23.847Z,961.79
2022-12-28T18:37:50.115Z,961.75
2022-12-28T18:40:16.463Z,961.80
2022-12-28T18:42:42.776Z,961.77
2022-12-28T18:45:09.174Z,961.83
2022-12-28T18:47:35.503Z,961.77
2022-12-28T18:50:01.852Z,961.78
2022-12-28T18:52:28.167Z,961.79
2022-12-28T18:54:54.557Z,961.91
2022-12-28T18:57:20.921Z,961.91
2022-12-28T18:59:47.264Z,961.96
2022-12-28T19:02:19.176Z,962.00
2022-12-28T19:04:40.160Z,962.00
2022-12-28T19:07:06.391Z,962.00
2022-12-28T19:09:32.795Z,961.98
2022-12-28T19:11:59.197Z,962.02
2022-12-28T19:14:25.526Z,962.02
2022-12-28T19:16:51.899Z,962.00
2022-12-28T19:19:18.226Z,962.00
2022-12-28T19:21:44.598Z,962.06
2022-12-28T19:24:10.966Z,962.03
2022-12-28T19:26:37.325Z,962.00
2022-12-28T19:29:03.740Z,961.97
2022-12-28T19:31:30.093Z,961.91
2022-12-28T19:33:56.412Z,961.88
2022-12-28T19:36:22.790Z,961.87
2022-12-28T19:38:49.180Z,961.91
2022-12-28T19:41:15.502Z,961.92
2022-12-28T19:43:41.844Z,961.90
2022-12-28T19:46:08.273Z,961.95
2022-12-28T19:48:34.592Z,961.92
2022-12-28T19:51:00.965Z,961.95
2022-12-28T19:53:27.346Z,961.95
2022-12-28T19:55:53.719Z,961.94
2022-12-28T19:58:20.100Z,962.02
2022-12-28T20:00:46.458Z,962.03
2022-12-28T20:03:13.004Z,961.99
2022-12-28T20:05:39.145Z,962.04
2022-12-28T20:08:05.532Z,961.97
2022-12-28T20:10:31.863Z,961.99
2022-12-28T20:12:58.205Z,961.97
2022-12-28T20:15:24.570Z,961.92
2022-12-28T20:17:50.918Z,961.96
2022-12-28T20:20:18.833Z,961.94
2022-12-28T20:22:43.654Z,962.01
2022-12-28T20:25:09.984Z,961.99
2022-12-28T20:27:36.326Z,961.94
2022-12-28T20:30:02.691Z,961.94
2022-12-28T20:32:29.070Z,961.96
2022-12-28T20:34:55.436Z,961.99
2022-12-28T20:37:21.813Z,961.98
2022-12-28T20:39:48.174Z,961.95
2022-12-28T20:42:14.546Z,962.00
2022-12-28T20:44:40.927Z,961.98
2022-12-28T20:47:07.315Z,961.88
2022-12-28T20:49:33.613Z,961.92
2022-12-28T20:51:59.960Z,961.99
2022-12-28T20:54:26.315Z,962.03
2022-12-28T20:56:55.811Z,961.94
2022-12-28T20:59:19.027Z,961.93
2022-12-28T21:01:45.492Z,961.95
2022-12-28T21:04:11.784Z,961.91
2022-12-28T21:06:38.105Z,961.84
2022-12-28T21:09:04.481Z,961.81
2022-12-28T21:11:30.859Z,961.76
2022-12-28T21:13:57.222Z,961.71
2022-12-28T21:16:23.667Z,961.68
2022-12-28T21:18:49.928Z,961.64
2022-12-28T21:21:16.349Z,961.75
2022-12-28T21:23:42.670Z,961.68
2022-12-28T21:26:09.052Z,961.72
2022-12-28T21:28:35.382Z,961.75
2022-12-28T21:31:01.726Z,961.77
2022-12-28T21:33:28.101Z,961.84
2022-12-28T21:35:54.401Z,961.91
2022-12-28T21:38:20.720Z,961.89
2022-12-28T21:40:47.125Z,961.85
2022-12-28T21:43:13.442Z,961.84
2022-12-28T21:45:39.832Z,961.87
2022-12-28T21:48:06.162Z,961.92
2022-12-28T21:50:32.500Z,961.91
2022-12-28T21:52:58.827Z,961.98
2022-12-28T21:55:25.225Z,961.92
2022-12-28T21:57:51.588Z,961.94
2022-12-28T22:00:17.999Z,961.96
2022-12-28T22:02:44.480Z,961.96
2022-12-28T22:05:10.724Z,961.96
2022-12-28T22:07:37.075Z,961.93
2022-12-28T22:10:03.426Z,961.93
2022-12-28T22:12:29.777Z,961.96
2022-12-28T22:14:56.112Z,961.92
2022-12-28T22:17:22.471Z,961.89
2022-12-28T22:19:48.850Z,961.91
2022-12-28T22:22:15.207Z,961.90
2022-12-28T22:24:41.594Z,961.94
2022-12-28T22:27:07.938Z,961.89
2022-12-28T22:29:34.293Z,961.89
2022-12-28T22:32:00.620Z,961.80
2022-12-28T22:34:26.994Z,961.83
2022-12-28T22:36:53.317Z,961.81
2022-12-28T22:39:19.703Z,961.79
2022-12-28T22:41:46.061Z,961.77
2022-12-28T22:44:12.417Z,961.75
2022-12-28T22:46:38.729Z,961.73
2022-12-28T22:49:05.128Z,961.81
2022-12-28T22:51:31.495Z,961.78
2022-12-28T22:53:57.861Z,961.76
2022-12-28T22:56:24.234Z,961.74
2022-12-28T22:58:50.581Z,961.74
2022-12-28T23:01:17.146Z,961.75
2022-12-28T23:03:43.350Z,961.64
2022-12-28T23:06:09.651Z,961.61
2022-12-28T23:08:35.999Z,961.66
2022-12-28T23:11:02.380Z,961.59
2022-12-28T23:13:29.271Z,961.65
2022-12-28T23:15:55.594Z,961.74
2022-12-28T23:18:22.029Z,961.72
2022-12-28T23:20:48.352Z,961.68
2022-12-28T23:23:14.727Z,961.63
2022-12-28T23:25:41.084Z,961.54
2022-12-28T23:28:07.435Z,961.55
2022-12-28T23:30:33.806Z,961.59
2022-12-28T23:33:00.158Z,961.57
2022-12-28T23:35:26.442Z,961.52
2022-12-28T23:37:52.779Z,961.51
2022-12-28T23:40:19.173Z,961.51
2022-12-28T23:42:45.514Z,961.44
2022-12-28T23:45:11.847Z,961.48
2022-12-28T23:47:38.197Z,961.44
2022-12-28T23:50:04.528Z,961.47
2022-12-28T23:52:30.860Z,961.44
2022-12-28T23:54:57.244Z,961.40
2022-12-28T23:57:23.638Z,961.40
2022-12-28T23:59:49.961Z,961.37
